PWSweather.com
Personal Weather Stations
Station Observations
KCOFALCO8
Falcon Hills, Falcon, CO 80831

Falcon HillsFalcon, CO 80831

Lat: 38.979792, Lon: -104.61195

Elevation: 7170

Station Type: AcuRite Pro 5-in-1

http://wx.frazierhome.net/

Latest ConditionsUpdated 1:09:04 AM MDT Wednesday, Jun 26, 2019
Currently Today's Max Today's Min Today's Average
Temperature 53.5°F11.9°C 55.9°F13.3°C 53.5°F11.9°C 54.7°F12.6°C
Dew Point 39.3°F4.1°C 39.4°F4.1°C 35.9°F2.2°C 37.9°F3.3°C
Winds 2.0 mph NW3.2 kmh NW 3.0 mph -4.8 kmh - - 1.6 mph 2.6 kmh
Wind Gusts -- -- - -
Humidity 59% 59% 50% 53%
Pressure 30.16 in1021.3 mb 30.17 in1021.7 mb 30.16 in1021.3 mb -
Hour Temp Dew Point Humidity Winds Wind Gusts Pressure Precip Precip Rate Daily Precip Total
01:09 AM 53.5°F11.9°C 39.3°F4.1°C 59% 2.0 mph NW3.2 kmh NW -- 30.16 in1021.3 mb 0.00 in0.0 mm 0.00 in0.0 mm 0.00 in0.0 mm
01:08 AM 53.8°F12.1°C 39.2°F4.0°C 58% 2.0 mph NW3.2 kmh NW -- 30.16 in1021.3 mb 0.00 in0.0 mm 0.00 in0.0 mm 0.00 in0.0 mm
01:07 AM 53.8°F12.1°C 39.2°F4.0°C 58% 1.0 mph W1.6 kmh W -- 30.16 in1021.3 mb 0.00 in0.0 mm 0.00 in0.0 mm 0.00 in0.0 mm
01:06 AM 53.8°F12.1°C 39.2°F4.0°C 58% 3.0 mph W4.8 kmh W -- 30.16 in1021.3 mb 0.00 in0.0 mm 0.00 in0.0 mm 0.00 in0.0 mm
01:05 AM 53.8°F12.1°C 39.2°F4.0°C 58% 2.0 mph WNW3.2 kmh WNW -- 30.16 in1021.3 mb 0.00 in0.0 mm 0.00 in0.0 mm 0.00 in0.0 mm
01:04 AM 54.0°F12.2°C 39.4°F4.1°C 58% 2.0 mph NW3.2 kmh NW -- 30.16 in1021.3 mb 0.00 in0.0 mm 0.00 in0.0 mm 0.00 in0.0 mm
01:02 AM 54.0°F12.2°C 38.5°F3.6°C 56% 3.0 mph NW4.8 kmh NW -- 30.16 in1021.3 mb 0.00 in0.0 mm 0.00 in0.0 mm 0.00 in0.0 mm
01:00 AM 54.0°F12.2°C 38.5°F3.6°C 56% 3.0 mph WNW4.8 kmh WNW -- 30.16 in1021.3 mb 0.00 in0.0 mm 0.00 in0.0 mm 0.00 in0.0 mm
12:59 AM 54.0°F12.2°C 38.5°F3.6°C 56% 2.0 mph W3.2 kmh W -- 30.16 in1021.3 mb 0.00 in0.0 mm 0.00 in0.0 mm 0.00 in0.0 mm
12:58 AM 54.0°F12.2°C 38.5°F3.6°C 56% 2.0 mph NW3.2 kmh NW -- 30.16 in1021.3 mb 0.00 in0.0 mm 0.00 in0.0 mm 0.00 in0.0 mm
12:57 AM 54.0°F12.2°C 38.5°F3.6°C 56% 3.0 mph NW4.8 kmh NW -- 30.17 in1021.7 mb 0.00 in0.0 mm 0.00 in0.0 mm 0.00 in0.0 mm
12:56 AM 54.0°F12.2°C 38.5°F3.6°C 56% 2.0 mph WNW3.2 kmh WNW -- 30.17 in1021.7 mb 0.00 in0.0 mm 0.00 in0.0 mm 0.00 in0.0 mm
12:55 AM 54.0°F12.2°C 38.5°F3.6°C 56% 3.0 mph NW4.8 kmh NW -- 30.16 in1021.3 mb 0.00 in0.0 mm 0.00 in0.0 mm 0.00 in0.0 mm
12:54 AM 54.2°F12.3°C 38.7°F3.7°C 56% 2.0 mph W3.2 kmh W -- 30.16 in1021.3 mb 0.00 in0.0 mm 0.00 in0.0 mm 0.00 in0.0 mm
12:53 AM 54.2°F12.3°C 38.7°F3.7°C 56% 3.0 mph WNW4.8 kmh WNW -- 30.17 in1021.7 mb 0.00 in0.0 mm 0.00 in0.0 mm 0.00 in0.0 mm
12:52 AM 54.2°F12.3°C 38.7°F3.7°C 56% 3.0 mph WNW4.8 kmh WNW -- 30.16 in1021.3 mb 0.00 in0.0 mm 0.00 in0.0 mm 0.00 in0.0 mm
12:51 AM 54.4°F12.4°C 38.8°F3.8°C 56% 3.0 mph NW4.8 kmh NW -- 30.17 in1021.7 mb 0.00 in0.0 mm 0.00 in0.0 mm 0.00 in0.0 mm
12:50 AM 54.4°F12.4°C 38.8°F3.8°C 56% 3.0 mph WNW4.8 kmh WNW -- 30.17 in1021.7 mb 0.00 in0.0 mm 0.00 in0.0 mm 0.00 in0.0 mm
12:49 AM 54.7°F12.6°C 38.7°F3.7°C 55% 3.0 mph WNW4.8 kmh WNW -- 30.17 in1021.7 mb 0.00 in0.0 mm 0.00 in0.0 mm 0.00 in0.0 mm
12:48 AM 54.7°F12.6°C 38.7°F3.7°C 55% 3.0 mph NW4.8 kmh NW -- 30.17 in1021.7 mb 0.00 in0.0 mm 0.00 in0.0 mm 0.00 in0.0 mm
12:47 AM 54.9°F12.7°C 38.9°F3.8°C 55% 3.0 mph NW4.8 kmh NW -- 30.17 in1021.7 mb 0.00 in0.0 mm 0.00 in0.0 mm 0.00 in0.0 mm
12:45 AM 55.0°F12.8°C 39.0°F3.9°C 55% 2.0 mph WNW3.2 kmh WNW -- 30.17 in1021.7 mb 0.00 in0.0 mm 0.00 in0.0 mm 0.00 in0.0 mm
12:44 AM 55.1°F12.8°C 39.0°F3.9°C 55% 2.0 mph WNW3.2 kmh WNW -- 30.17 in1021.7 mb 0.00 in0.0 mm 0.00 in0.0 mm 0.00 in0.0 mm
12:43 AM 55.1°F12.8°C 38.6°F3.7°C 54% 2.0 mph W3.2 kmh W -- 30.17 in1021.7 mb 0.00 in0.0 mm 0.00 in0.0 mm 0.00 in0.0 mm
12:42 AM 55.3°F12.9°C 38.7°F3.7°C 54% 2.0 mph WNW3.2 kmh WNW -- 30.17 in1021.7 mb 0.00 in0.0 mm 0.00 in0.0 mm 0.00 in0.0 mm
12:41 AM 55.3°F12.9°C 38.7°F3.7°C 54% 2.0 mph NW3.2 kmh NW -- 30.16 in1021.3 mb 0.00 in0.0 mm 0.00 in0.0 mm 0.00 in0.0 mm
12:40 AM 55.5°F13.1°C 39.1°F3.9°C 54% 2.0 mph NW3.2 kmh NW -- 30.16 in1021.3 mb 0.00 in0.0 mm 0.00 in0.0 mm 0.00 in0.0 mm
12:39 AM 55.7°F13.2°C 39.2°F4.0°C 54% 2.0 mph WNW3.2 kmh WNW -- 30.16 in1021.3 mb 0.00 in0.0 mm 0.00 in0.0 mm 0.00 in0.0 mm
12:38 AM 55.7°F13.2°C 38.7°F3.7°C 53% 2.0 mph WNW3.2 kmh WNW -- 30.16 in1021.3 mb 0.00 in0.0 mm 0.00 in0.0 mm 0.00 in0.0 mm
12:36 AM 55.9°F13.3°C 38.9°F3.8°C 53% 2.0 mph WNW3.2 kmh WNW -- 30.17 in1021.7 mb 0.00 in0.0 mm 0.00 in0.0 mm 0.00 in0.0 mm
12:35 AM 55.9°F13.3°C 37.9°F3.3°C 51% 3.0 mph W4.8 kmh W -- 30.17 in1021.7 mb 0.00 in0.0 mm 0.00 in0.0 mm 0.00 in0.0 mm
12:33 AM 55.7°F13.2°C 37.8°F3.2°C 51% 3.0 mph W4.8 kmh W -- 30.17 in1021.7 mb 0.00 in0.0 mm 0.00 in0.0 mm 0.00 in0.0 mm
12:31 AM 55.5°F13.1°C 37.6°F3.1°C 51% 2.0 mph W3.2 kmh W -- 30.17 in1021.7 mb 0.00 in0.0 mm 0.00 in0.0 mm 0.00 in0.0 mm
12:30 AM 55.5°F13.1°C 37.6°F3.1°C 51% 2.0 mph WNW3.2 kmh WNW -- 30.16 in1021.3 mb 0.00 in0.0 mm 0.00 in0.0 mm 0.00 in0.0 mm
12:28 AM 55.3°F12.9°C 37.3°F2.9°C 51% 2.0 mph W3.2 kmh W -- 30.17 in1021.7 mb 0.00 in0.0 mm 0.00 in0.0 mm 0.00 in0.0 mm
12:27 AM 55.3°F12.9°C 37.3°F2.9°C 51% 2.0 mph WNW3.2 kmh WNW -- 30.16 in1021.3 mb 0.00 in0.0 mm 0.00 in0.0 mm 0.00 in0.0 mm
12:25 AM 55.1°F12.8°C 37.1°F2.8°C 51% 2.0 mph W3.2 kmh W -- 30.16 in1021.3 mb 0.00 in0.0 mm 0.00 in0.0 mm 0.00 in0.0 mm
12:24 AM 55.0°F12.8°C 37.1°F2.8°C 51% 2.0 mph W3.2 kmh W -- 30.16 in1021.3 mb 0.00 in0.0 mm 0.00 in0.0 mm 0.00 in0.0 mm
12:23 AM 55.0°F12.8°C 37.1°F2.8°C 51% Calm Calm -- 30.16 in1021.3 mb 0.00 in0.0 mm 0.00 in0.0 mm 0.00 in0.0 mm
12:21 AM 54.9°F12.7°C 36.9°F2.7°C 51% Calm Calm -- 30.16 in1021.3 mb 0.00 in0.0 mm 0.00 in0.0 mm 0.00 in0.0 mm
12:20 AM 54.7°F12.6°C 36.8°F2.7°C 51% Calm Calm -- 30.16 in1021.3 mb 0.00 in0.0 mm 0.00 in0.0 mm 0.00 in0.0 mm
12:18 AM 54.7°F12.6°C 36.8°F2.7°C 51% Calm Calm -- 30.16 in1021.3 mb 0.00 in0.0 mm 0.00 in0.0 mm 0.00 in0.0 mm
12:17 AM 54.7°F12.6°C 36.3°F2.4°C 50% Calm Calm -- 30.16 in1021.3 mb 0.00 in0.0 mm 0.00 in0.0 mm 0.00 in0.0 mm
12:14 AM 54.9°F12.7°C 36.4°F2.4°C 50% Calm Calm -- 30.16 in1021.3 mb 0.00 in0.0 mm 0.00 in0.0 mm 0.00 in0.0 mm
12:13 AM 54.9°F12.7°C 36.4°F2.4°C 50% Calm Calm -- 30.17 in1021.7 mb 0.00 in0.0 mm 0.00 in0.0 mm 0.00 in0.0 mm
12:12 AM 54.9°F12.7°C 36.4°F2.4°C 50% Calm Calm -- 30.16 in1021.3 mb 0.00 in0.0 mm 0.00 in0.0 mm 0.00 in0.0 mm
12:10 AM 54.9°F12.7°C 36.4°F2.4°C 50% Calm Calm -- 30.16 in1021.3 mb 0.00 in0.0 mm 0.00 in0.0 mm 0.00 in0.0 mm
12:08 AM 54.7°F12.6°C 36.3°F2.4°C 50% Calm Calm -- 30.16 in1021.3 mb 0.00 in0.0 mm 0.00 in0.0 mm 0.00 in0.0 mm
12:07 AM 54.7°F12.6°C 36.3°F2.4°C 50% Calm Calm -- 30.16 in1021.3 mb 0.00 in0.0 mm 0.00 in0.0 mm 0.00 in0.0 mm
12:06 AM 54.7°F12.6°C 36.3°F2.4°C 50% Calm Calm -- 30.16 in1021.3 mb 0.00 in0.0 mm 0.00 in0.0 mm 0.00 in0.0 mm
12:04 AM 54.7°F12.6°C 36.3°F2.4°C 50% Calm Calm -- 30.16 in1021.3 mb 0.00 in0.0 mm 0.00 in0.0 mm 0.00 in0.0 mm
12:03 AM 54.4°F12.4°C 35.9°F2.2°C 50% Calm Calm -- 30.16 in1021.3 mb 0.00 in0.0 mm 0.00 in0.0 mm 0.00 in0.0 mm
12:02 AM 54.4°F12.4°C 35.9°F2.2°C 50% Calm Calm -- 30.16 in1021.3 mb 0.00 in0.0 mm 0.00 in0.0 mm 0.00 in0.0 mm
12:00 AM 54.4°F12.4°C 35.9°F2.2°C 50% Calm Calm -- 30.16 in1021.3 mb 0.00 in0.0 mm 0.00 in0.0 mm 0.00 in0.0 mm